Summerfield, Florida
Current Conditions -  °F | °C
As of 5:50 PM on Monday 26 Jan 2015 (Local Time) from KOCF Reporting Station
Clear Clear  
Wind Chill: 55°   Ceiling: Unl
Heat Index: 55°   Visibility: 10mi
Dew Point: 37°   Wind: 9mph
Humidity: 51%   Direction: 280°W
Pressure: 29.88"   Gusts: NA
Location:  29.01°N, 82.03°W
Report Text: KOCF 262250Z 28008KT 10SM CLR 13/03 A2988
Loading
Personal Weather Stations






























Interactive Weather Map New forecast layout! Learn more

10-Day Weather Forecast

Advertisements
Track Severe Weather on mobile